Terminal Aerodrome Forecast
Issued by NWS

Home | Current Version | Previous Version | Text Only | Print | Product List | Glossary On
Versions: 1 2 3 4 5 6 7 8 9 10 11 12 13 14 15 16 17 18 19 20 21 22 23 24 25 26 27 28 29 30 31 32 33 34 35 36
000
FTUS46 KLOX 251300 AAA
TAFLAX
TAF AMD
KLAX 251309Z 2513/2618 VRB03KT P6SM SCT015 BKN040
     FM251500 VRB03KT P6SM BKN015 OVC040
     FM251700 26014KT P6SM BKN025 BKN050
     FM252200 27022G32KT P6SM FEW025 BKN050
     FM260400 28014KT P6SM SCT100
     FM260800 32007KT P6SM SCT150
     FM261300 VRB03KT P6SM SCT150=

USA.gov is the U.S. government's official web portal to all federal, state and local government web resources and services.